Time;durP1;ratioP1;P1;durP2;ratioP2;P2;SDS_P1;SDS_P2;PMS_P1;PMS_P2;Temp;Humidity;BMP_temperature;BMP_pressure;BME280_temperature;BME280_humidity;BME280_pressure;Samples;Min_cycle;Max_cycle;Signal;HPM_P1;HPM_P2
2021/10/20 00:02:53;;;;;;;8.03;7.27;;;9.60;99.90;;;;;;6196036;23;20826;-86
2021/10/20 00:05:19;;;;;;;8.90;8.07;;;9.50;99.90;;;;;;6197326;23;20764;-85
2021/10/20 00:07:48;;;;;;;7.90;7.13;;;9.50;99.90;;;;;;6199900;23;20402;-86
2021/10/20 00:10:16;;;;;;;8.30;7.57;;;9.50;99.90;;;;;;6197997;23;20395;-86
2021/10/20 00:13:01;;;;;;;8.40;7.60;;;9.50;99.90;;;;;;6198267;23;20398;-86
2021/10/20 00:15:27;;;;;;;7.57;6.87;;;9.40;99.90;;;;;;6192554;23;20394;-87
2021/10/20 00:17:53;;;;;;;9.07;8.20;;;9.30;99.90;;;;;;6197843;23;20769;-87
2021/10/20 00:20:22;;;;;;;8.93;7.50;;;9.40;99.90;;;;;;6202031;23;20160;-86
2021/10/20 00:22:51;;;;;;;8.30;7.60;;;9.50;99.90;;;;;;6198626;23;20468;-85
2021/10/20 00:25:17;;;;;;;9.43;8.50;;;9.40;99.90;;;;;;6197980;23;20395;-86
2021/10/20 00:27:44;;;;;;;9.73;8.80;;;9.30;99.90;;;;;;6201339;23;20897;-86
2021/10/20 00:30:11;;;;;;;9.37;8.47;;;9.20;99.90;;;;;;6178280;23;20387;-86
2021/10/20 00:32:38;;;;;;;10.33;7.90;;;9.20;99.90;;;;;;6199756;23;20472;-86
2021/10/20 00:35:05;;;;;;;9.70;7.70;;;9.20;99.90;;;;;;6198177;23;20387;-86
2021/10/20 00:37:38;;;;;;;8.73;7.73;;;9.20;99.90;;;;;;6198060;23;20854;-86
2021/10/20 00:40:15;;;;;;;7.90;7.20;;;9.20;99.90;;;;;;6200624;23;20409;-86
2021/10/20 00:42:45;;;;;;;7.93;7.10;;;9.20;99.90;;;;;;6198162;23;20584;-86
2021/10/20 00:45:22;;;;;;;8.13;7.33;;;9.20;99.90;;;;;;6199614;23;20481;-86
2021/10/20 00:48:07;;;;;;;7.53;6.40;;;9.30;99.90;;;;;;6198017;23;20409;-86
2021/10/20 00:50:35;;;;;;;7.20;6.50;;;9.40;99.90;;;;;;6197707;23;20387;-86
2021/10/20 00:53:02;;;;;;;8.20;6.77;;;9.50;99.90;;;;;;6197796;23;20398;-86
2021/10/20 00:55:29;;;;;;;7.17;6.47;;;9.50;99.90;;;;;;6200965;23;20462;-86
2021/10/20 00:57:56;;;;;;;6.80;6.10;;;9.50;99.90;;;;;;6197102;23;20529;-86
2021/10/20 01:00:24;;;;;;;8.40;6.43;;;9.50;99.90;;;;;;6197776;23;20425;-86
2021/10/20 01:02:49;;;;;;;7.50;6.67;;;9.50;99.90;;;;;;6175562;23;20453;-86
2021/10/20 01:05:16;;;;;;;8.37;6.93;;;9.50;99.90;;;;;;6196414;23;20410;-86
2021/10/20 01:07:44;;;;;;;7.40;6.67;;;9.60;99.90;;;;;;6196690;23;20193;-86
2021/10/20 01:10:11;;;;;;;7.37;6.63;;;9.70;99.90;;;;;;6199246;23;20413;-86
2021/10/20 01:13:01;;;;;;;7.57;6.90;;;9.60;99.90;;;;;;6197446;23;20764;-86
2021/10/20 01:15:28;;;;;;;6.73;6.13;;;9.60;99.90;;;;;;6197622;23;20395;-85
2021/10/20 01:17:54;;;;;;;7.10;6.50;;;9.70;99.90;;;;;;6196022;23;20518;-85
2021/10/20 01:20:31;;;;;;;6.83;6.13;;;9.70;99.90;;;;;;6196529;23;20931;-85
2021/10/20 01:22:58;;;;;;;7.27;6.40;;;9.70;99.90;;;;;;6197215;23;20446;-86
2021/10/20 01:25:31;;;;;;;6.70;6.10;;;9.70;99.90;;;;;;6204461;23;20394;-86
2021/10/20 01:27:59;;;;;;;8.60;7.17;;;9.60;99.90;;;;;;6178061;23;20399;-86
2021/10/20 01:30:32;;;;;;;7.40;6.70;;;9.60;99.90;;;;;;6171811;23;20403;-87
2021/10/20 01:33:02;;;;;;;7.00;6.27;;;9.50;99.90;;;;;;6171720;23;20453;-86
2021/10/20 01:35:28;;;;;;;7.13;6.43;;;9.50;99.90;;;;;;6198570;23;20390;-87
2021/10/20 01:38:16;;;;;;;7.20;6.50;;;9.40;99.90;;;;;;6205397;23;20548;-86
2021/10/20 01:40:42;;;;;;;8.23;7.07;;;9.40;99.90;;;;;;6201540;23;20174;-86
2021/10/20 01:43:08;;;;;;;8.20;7.50;;;9.30;99.90;;;;;;6199265;23;20446;-86
2021/10/20 01:45:33;;;;;;;7.27;6.40;;;9.40;99.90;;;;;;6198560;23;20229;-86
2021/10/20 01:47:59;;;;;;;7.70;6.90;;;9.50;99.90;;;;;;6201000;23;20168;-86
2021/10/20 01:50:25;;;;;;;7.00;6.30;;;9.50;99.90;;;;;;6200234;23;20172;-86
2021/10/20 01:52:51;;;;;;;7.57;6.87;;;9.50;99.90;;;;;;6201371;23;20222;-86
2021/10/20 01:55:17;;;;;;;9.23;6.47;;;9.50;99.90;;;;;;6202256;23;20178;-86
2021/10/20 01:57:44;;;;;;;7.47;6.77;;;9.50;99.90;;;;;;6199939;23;20176;-86
2021/10/20 02:00:11;;;;;;;7.13;5.93;;;9.40;99.90;;;;;;6198119;23;21325;-85
2021/10/20 02:02:37;;;;;;;9.13;7.57;;;9.30;99.90;;;;;;6199388;23;20770;-86
2021/10/20 02:05:05;;;;;;;6.83;6.23;;;9.30;99.90;;;;;;6199123;23;20414;-86
2021/10/20 02:07:31;;;;;;;6.40;5.80;;;9.20;99.90;;;;;;6198534;23;20509;-86
2021/10/20 02:09:57;;;;;;;9.90;6.77;;;9.10;99.90;;;;;;6200177;23;20383;-86
2021/10/20 02:12:23;;;;;;;6.40;5.80;;;9.10;99.90;;;;;;6200772;23;20426;-86
2021/10/20 02:14:49;;;;;;;6.73;5.90;;;9.00;99.90;;;;;;6203378;23;20247;-85
2021/10/20 02:17:17;;;;;;;7.67;6.20;;;9.00;99.90;;;;;;6202367;23;20217;-85
2021/10/20 02:19:43;;;;;;;7.50;6.33;;;9.00;99.90;;;;;;6204490;23;20487;-85
2021/10/20 02:22:09;;;;;;;7.80;6.50;;;8.90;99.90;;;;;;6199961;23;20446;-86
2021/10/20 02:24:35;;;;;;;7.03;6.33;;;8.90;99.90;;;;;;6197872;23;20462;-85
2021/10/20 02:27:01;;;;;;;7.07;6.27;;;9.00;99.90;;;;;;6198649;23;20411;-85
2021/10/20 02:29:30;;;;;;;6.80;6.17;;;9.00;99.90;;;;;;6200625;23;20768;-85
2021/10/20 02:31:59;;;;;;;6.70;5.97;;;8.90;99.90;;;;;;6199914;23;20909;-86
2021/10/20 02:34:25;;;;;;;7.57;6.50;;;8.80;99.90;;;;;;6198132;23;20456;-85
2021/10/20 02:36:51;;;;;;;7.20;6.60;;;8.90;99.90;;;;;;6202358;23;20836;-85
2021/10/20 02:39:17;;;;;;;7.10;6.40;;;9.00;99.90;;;;;;6199528;23;20414;-86
2021/10/20 02:41:45;;;;;;;7.33;6.70;;;9.00;99.90;;;;;;6200470;23;20286;-85
2021/10/20 02:44:12;;;;;;;8.87;7.13;;;9.00;99.90;;;;;;6202329;23;20635;-86
2021/10/20 02:46:39;;;;;;;8.07;7.27;;;9.00;99.90;;;;;;6199030;23;20410;-86
2021/10/20 02:49:07;;;;;;;9.17;7.67;;;9.00;99.90;;;;;;6198584;23;20814;-85
2021/10/20 02:51:40;;;;;;;9.90;8.30;;;9.00;99.90;;;;;;6201119;23;20398;-86
2021/10/20 02:54:05;;;;;;;8.67;7.17;;;8.90;99.90;;;;;;6175923;23;20417;-86
2021/10/20 02:56:33;;;;;;;9.20;6.60;;;8.90;99.90;;;;;;6213016;23;20403;-86
2021/10/20 02:59:24;;;;;;;7.13;6.43;;;8.90;99.90;;;;;;6201936;23;20167;-85
2021/10/20 03:02:11;;;;;;;7.40;6.67;;;8.90;99.90;;;;;;6201680;23;20466;-86
2021/10/20 03:04:40;;;;;;;7.10;6.40;;;8.90;99.90;;;;;;6198725;23;20425;-86
2021/10/20 03:07:13;;;;;;;6.83;6.23;;;8.90;99.90;;;;;;6200152;23;20889;-86
2021/10/20 03:09:41;;;;;;;8.23;6.30;;;8.80;99.90;;;;;;6200245;23;20410;-86
2021/10/20 03:12:08;;;;;;;6.83;6.23;;;8.70;99.90;;;;;;6171674;23;20393;-86
2021/10/20 03:14:34;;;;;;;6.80;6.17;;;8.70;99.90;;;;;;6199704;23;20714;-86
2021/10/20 03:16:59;;;;;;;8.50;6.33;;;8.70;99.90;;;;;;6199845;23;20395;-86
2021/10/20 03:19:31;;;;;;;6.83;6.13;;;8.60;99.90;;;;;;6197944;23;20230;-86
2021/10/20 03:22:00;;;;;;;6.60;6.00;;;8.70;99.90;;;;;;6201647;23;20238;-86
2021/10/20 03:24:27;;;;;;;7.03;6.33;;;8.70;99.90;;;;;;6197874;23;20403;-85
2021/10/20 03:26:52;;;;;;;7.43;6.63;;;8.70;99.90;;;;;;6200477;23;20482;-85
2021/10/20 03:29:20;;;;;;;10.93;6.60;;;8.60;99.90;;;;;;6203133;23;20422;-86
2021/10/20 03:31:47;;;;;;;9.17;5.83;;;8.60;99.90;;;;;;6198537;23;20722;-86
2021/10/20 03:34:13;;;;;;;7.40;6.70;;;8.50;99.90;;;;;;6197697;23;20482;-86
2021/10/20 03:36:39;;;;;;;7.53;6.83;;;8.50;99.90;;;;;;6199731;23;20885;-86
2021/10/20 03:39:04;;;;;;;5.30;4.80;;;8.50;99.90;;;;;;6199182;23;20499;-86
2021/10/20 03:41:30;;;;;;;7.50;5.57;;;8.50;99.90;;;;;;6199859;23;20708;-86
2021/10/20 03:43:56;;;;;;;7.93;5.83;;;8.60;99.90;;;;;;6199494;23;20167;-87
2021/10/20 03:46:21;;;;;;;6.27;5.77;;;8.60;99.90;;;;;;6200296;23;20230;-86
2021/10/20 03:48:47;;;;;;;5.57;5.10;;;8.60;99.90;;;;;;6201312;23;20777;-86
2021/10/20 03:51:13;;;;;;;7.57;5.70;;;8.60;99.90;;;;;;6200202;23;20654;-86
2021/10/20 03:53:38;;;;;;;5.70;5.20;;;8.60;99.90;;;;;;6173527;23;20172;-86
2021/10/20 03:56:04;;;;;;;7.33;6.63;;;8.60;99.90;;;;;;6196769;23;20495;-86
2021/10/20 04:01:05;;;;;;;11.27;9.70;;;8.70;99.90;;;;;;6201487;23;20162;-86
2021/10/20 04:03:30;;;;;;;9.00;8.10;;;8.70;99.90;;;;;;6197517;23;20916;-86
2021/10/20 04:06:23;;;;;;;6.43;5.90;;;8.80;99.90;;;;;;6199214;23;20991;-86
2021/10/20 04:08:51;;;;;;;6.23;5.10;;;8.70;99.90;;;;;;6172165;23;20394;-87
2021/10/20 04:11:23;;;;;;;6.03;4.97;;;8.70;99.90;;;;;;6173374;23;20399;-86
2021/10/20 04:13:52;;;;;;;5.77;4.80;;;8.80;99.90;;;;;;6202624;23;20394;-91
2021/10/20 04:16:42;;;;;;;5.37;4.80;;;8.80;99.90;;;;;;6174241;23;20514;-89
2021/10/20 04:19:08;;;;;;;6.87;4.90;;;8.80;99.90;;;;;;6173861;23;20159;-88
2021/10/20 04:21:33;;;;;;;5.90;5.13;;;8.80;99.90;;;;;;6170985;23;20435;-89
2021/10/20 04:23:59;;;;;;;7.20;5.73;;;8.80;99.90;;;;;;6173842;23;20190;-88
2021/10/20 04:26:24;;;;;;;6.70;5.10;;;8.80;99.90;;;;;;6189664;23;20610;-89
2021/10/20 04:28:50;;;;;;;5.50;5.00;;;8.70;99.90;;;;;;6179524;23;20163;-89
2021/10/20 04:31:16;;;;;;;5.77;5.17;;;8.60;99.90;;;;;;6176738;23;20152;-87
2021/10/20 04:33:41;;;;;;;7.80;5.03;;;8.40;99.90;;;;;;6203334;23;20174;-89
2021/10/20 04:36:07;;;;;;;6.63;5.83;;;8.40;99.90;;;;;;6179630;23;20166;-88
2021/10/20 04:38:33;;;;;;;7.50;6.40;;;8.30;99.90;;;;;;6179557;23;20159;-93
2021/10/20 04:41:01;;;;;;;7.13;6.30;;;8.30;99.90;;;;;;6180922;23;20163;-92
2021/10/20 04:43:27;;;;;;;7.83;7.13;;;8.20;99.90;;;;;;6180770;23;20199;-92
2021/10/20 04:45:54;;;;;;;8.57;7.77;;;8.20;99.90;;;;;;6179974;23;20407;-93
2021/10/20 04:48:21;;;;;;;7.90;7.17;;;8.10;99.90;;;;;;6181002;23;20160;-93
2021/10/20 04:50:46;;;;;;;9.40;7.60;;;8.10;99.90;;;;;;6179913;23;20390;-91
2021/10/20 04:53:12;;;;;;;7.60;6.90;;;8.10;99.90;;;;;;6184041;23;20501;-95
2021/10/20 04:55:38;;;;;;;8.13;7.20;;;8.00;99.90;;;;;;6181044;23;20239;-92
2021/10/20 04:58:07;;;;;;;9.30;7.70;;;8.00;99.90;;;;;;6189442;23;20171;-92
2021/10/20 05:00:34;;;;;;;6.97;6.37;;;8.00;99.90;;;;;;6189066;23;20163;-94
2021/10/20 05:03:00;;;;;;;7.27;6.67;;;8.10;99.90;;;;;;6187674;23;20510;-92
2021/10/20 05:05:27;;;;;;;8.03;6.10;;;8.10;99.90;;;;;;6206040;23;20434;-95
2021/10/20 05:08:01;;;;;;;7.10;6.40;;;8.00;99.90;;;;;;6212693;23;20402;-92
2021/10/20 05:10:27;;;;;;;6.07;5.57;;;8.00;99.90;;;;;;6209592;23;20762;-94
2021/10/20 05:12:56;;;;;;;11.07;7.47;;;8.10;99.90;;;;;;6207667;23;20893;-92
2021/10/20 05:15:22;;;;;;;6.67;5.87;;;8.10;99.90;;;;;;6204372;23;20398;-92
2021/10/20 05:17:48;;;;;;;5.93;5.10;;;8.10;99.90;;;;;;6208586;23;20461;-92
2021/10/20 05:20:15;;;;;;;7.17;6.50;;;8.00;99.90;;;;;;6208295;23;20765;-93
2021/10/20 05:22:42;;;;;;;7.03;6.33;;;8.00;99.90;;;;;;6207489;23;20205;-94
2021/10/20 05:25:09;;;;;;;7.10;6.50;;;8.00;99.90;;;;;;6207248;23;20866;-91
2021/10/20 05:27:35;;;;;;;8.80;6.73;;;7.90;99.90;;;;;;6205065;23;20697;-93
2021/10/20 05:30:01;;;;;;;7.83;6.83;;;7.90;99.90;;;;;;6206354;23;20398;-92
2021/10/20 05:32:28;;;;;;;8.80;7.73;;;7.90;99.90;;;;;;6208060;23;20720;-93
2021/10/20 05:34:55;;;;;;;6.80;6.10;;;7.90;99.90;;;;;;6209250;23;20469;-95
2021/10/20 05:37:20;;;;;;;6.53;5.77;;;7.90;99.90;;;;;;6208563;23;20398;-93
2021/10/20 05:39:48;;;;;;;7.20;6.50;;;7.90;99.90;;;;;;6209715;23;20505;-93
2021/10/20 05:42:15;;;;;;;7.77;6.23;;;8.10;99.90;;;;;;6207702;23;20195;-94
2021/10/20 05:44:41;;;;;;;7.57;6.20;;;8.10;99.90;;;;;;6208808;23;20394;-93
2021/10/20 05:47:15;;;;;;;5.50;4.83;;;8.10;99.90;;;;;;6210685;23;20398;-91
2021/10/20 05:49:47;;;;;;;6.40;5.50;;;8.10;99.90;;;;;;6201082;23;20414;-88
2021/10/20 05:52:14;;;;;;;6.67;6.07;;;8.00;99.90;;;;;;6205120;23;20410;-90
2021/10/20 05:54:40;;;;;;;10.83;7.20;;;7.90;99.90;;;;;;6208072;23;20391;-88
2021/10/20 05:57:05;;;;;;;9.93;7.70;;;8.00;99.90;;;;;;6210014;23;20448;-88
2021/10/20 05:59:31;;;;;;;73.33;65.00;;;7.90;99.90;;;;;;6205454;23;20540;-88
2021/10/20 06:02:02;;;;;;;48.57;43.43;;;8.00;99.90;;;;;;6204149;23;20253;-89
2021/10/20 06:04:28;;;;;;;8.30;6.50;;;8.00;99.90;;;;;;6203974;23;20460;-88
2021/10/20 06:06:58;;;;;;;8.90;5.70;;;7.90;99.90;;;;;;6205293;23;20411;-89
2021/10/20 06:09:33;;;;;;;7.00;6.30;;;7.90;99.90;;;;;;6202971;23;20250;-89
2021/10/20 06:12:06;;;;;;;8.37;7.30;;;7.80;99.90;;;;;;6202538;23;20430;-90
2021/10/20 06:14:32;;;;;;;8.50;6.47;;;7.70;99.90;;;;;;6179162;23;20414;-90
2021/10/20 06:17:31;;;;;;;17.83;6.90;;;7.80;99.90;;;;;;6201344;23;20461;-89
2021/10/20 06:19:57;;;;;;;8.07;6.13;;;7.70;99.90;;;;;;6204231;23;20174;-89
2021/10/20 06:22:24;;;;;;;9.93;6.30;;;7.80;99.90;;;;;;6205267;23;20438;-90
2021/10/20 06:24:49;;;;;;;7.43;6.07;;;7.80;99.90;;;;;;6202830;23;20401;-89
2021/10/20 06:27:27;;;;;;;6.60;5.90;;;7.90;99.90;;;;;;6206042;23;20880;-90
2021/10/20 06:29:53;;;;;;;6.43;5.80;;;8.00;99.90;;;;;;6204301;23;20247;-90
2021/10/20 06:32:18;;;;;;;6.80;5.33;;;8.00;99.90;;;;;;6204771;23;20390;-89
2021/10/20 06:34:44;;;;;;;7.67;6.13;;;8.20;99.90;;;;;;6201786;23;20164;-88
2021/10/20 06:37:13;;;;;;;10.63;7.50;;;8.30;99.90;;;;;;6202763;23;20385;-90
2021/10/20 06:39:43;;;;;;;8.60;6.80;;;8.50;99.90;;;;;;6202886;23;20357;-89
2021/10/20 06:42:09;;;;;;;5.67;5.10;;;8.60;99.90;;;;;;6179030;23;20503;-90
2021/10/20 06:44:34;;;;;;;5.80;5.30;;;8.60;99.90;;;;;;6203794;23;20473;-89
2021/10/20 06:47:00;;;;;;;6.70;5.50;;;8.70;99.90;;;;;;6203046;23;20186;-89
2021/10/20 06:49:26;;;;;;;6.00;5.40;;;8.90;99.90;;;;;;6177616;23;21255;-88
2021/10/20 06:51:51;;;;;;;6.93;6.00;;;8.90;99.90;;;;;;6202320;23;20167;-89
2021/10/20 06:54:18;;;;;;;7.73;6.67;;;9.00;99.90;;;;;;6199196;23;20164;-89
2021/10/20 06:56:52;;;;;;;11.10;5.60;;;9.00;99.90;;;;;;6198565;23;20166;-90
2021/10/20 06:59:18;;;;;;;8.50;6.50;;;9.00;99.90;;;;;;6201795;23;20391;-91
2021/10/20 07:01:44;;;;;;;6.87;6.20;;;9.10;99.90;;;;;;6198782;23;20442;-89
2021/10/20 07:04:13;;;;;;;8.33;6.90;;;9.20;99.90;;;;;;6204006;23;20904;-89
2021/10/20 07:06:40;;;;;;;7.80;7.00;;;9.40;99.90;;;;;;6199177;23;20436;-89
2021/10/20 07:09:07;;;;;;;9.70;7.67;;;9.50;99.90;;;;;;6197428;23;20398;-89
2021/10/20 07:11:33;;;;;;;9.20;6.43;;;9.60;99.90;;;;;;6196138;23;20403;-88
2021/10/20 07:13:59;;;;;;;7.57;6.80;;;9.70;99.90;;;;;;6196953;23;20388;-88
2021/10/20 07:16:25;;;;;;;7.33;5.97;;;9.80;99.90;;;;;;6199146;23;20477;-88
2021/10/20 07:18:50;;;;;;;7.97;6.90;;;10.00;99.90;;;;;;6195834;23;20436;-87
2021/10/20 07:21:17;;;;;;;8.53;6.03;;;10.10;99.90;;;;;;6191871;23;20519;-88
2021/10/20 07:23:45;;;;;;;7.87;7.10;;;10.20;99.90;;;;;;6195004;23;20461;-88
2021/10/20 07:26:13;;;;;;;6.57;5.97;;;10.40;99.90;;;;;;6202501;23;20776;-88
2021/10/20 07:28:40;;;;;;;6.60;6.00;;;10.50;99.90;;;;;;6197132;23;20406;-88
2021/10/20 07:31:05;;;;;;;6.20;5.60;;;10.60;99.90;;;;;;6192965;23;20394;-88
2021/10/20 07:33:31;;;;;;;6.43;5.80;;;10.80;99.90;;;;;;6196434;23;20254;-87
2021/10/20 07:36:04;;;;;;;8.83;8.03;;;10.90;99.90;;;;;;6197692;23;20167;-87
2021/10/20 07:38:30;;;;;;;14.23;12.60;;;11.10;99.90;;;;;;6199842;23;20418;-88
2021/10/20 07:40:55;;;;;;;6.10;5.60;;;11.50;99.90;;;;;;6196623;23;20785;-89
2021/10/20 07:43:21;;;;;;;5.43;4.93;;;11.70;99.90;;;;;;6198558;23;20195;-89
2021/10/20 07:45:59;;;;;;;5.13;4.63;;;11.90;99.90;;;;;;6199029;23;20195;-91
2021/10/20 07:48:24;;;;;;;5.70;5.20;;;12.10;99.90;;;;;;6201389;23;20174;-88
2021/10/20 07:50:50;;;;;;;6.53;5.80;;;12.30;99.90;;;;;;6198199;23;20398;-88
2021/10/20 07:53:16;;;;;;;6.37;5.77;;;12.30;99.90;;;;;;6200675;23;20217;-88
2021/10/20 07:55:44;;;;;;;6.13;5.53;;;12.40;99.90;;;;;;6200913;23;20163;-88
2021/10/20 07:58:12;;;;;;;5.70;5.20;;;12.40;99.90;;;;;;6198426;23;20159;-88
2021/10/20 08:00:40;;;;;;;6.67;5.70;;;12.40;99.90;;;;;;6199164;23;20410;-89
2021/10/20 08:03:06;;;;;;;6.17;5.17;;;12.60;99.90;;;;;;6202269;23;20439;-89
2021/10/20 08:05:32;;;;;;;6.10;5.50;;;12.60;99.90;;;;;;6198344;23;20422;-87
2021/10/20 08:07:59;;;;;;;5.97;5.40;;;12.60;99.90;;;;;;6198606;23;20167;-88
2021/10/20 08:10:27;;;;;;;5.70;5.20;;;12.60;99.90;;;;;;6197663;23;20187;-88
2021/10/20 08:12:55;;;;;;;6.50;5.90;;;12.60;99.90;;;;;;6198395;23;20401;-89
2021/10/20 08:15:21;;;;;;;5.80;5.30;;;12.70;99.90;;;;;;6198803;23;20494;-88
2021/10/20 08:17:50;;;;;;;5.47;5.07;;;12.80;99.90;;;;;;6198460;23;20387;-90
2021/10/20 08:20:21;;;;;;;5.47;4.97;;;13.00;99.90;;;;;;6198704;23;20477;-88
2021/10/20 08:22:48;;;;;;;5.10;4.60;;;13.10;99.90;;;;;;6201539;23;20921;-88
2021/10/20 08:25:15;;;;;;;5.30;4.70;;;13.30;99.90;;;;;;6199031;23;20698;-89
2021/10/20 08:27:48;;;;;;;4.50;4.03;;;13.60;99.90;;;;;;6198156;23;20437;-88
2021/10/20 08:30:18;;;;;;;4.53;4.13;;;13.70;99.90;;;;;;6195107;23;20537;-89
2021/10/20 08:33:02;;;;;;;4.00;3.70;;;13.90;99.90;;;;;;6203468;23;20395;-89
2021/10/20 08:35:37;;;;;;;4.10;3.70;;;14.00;99.90;;;;;;6205493;23;20383;-89
2021/10/20 08:38:04;;;;;;;4.20;3.90;;;14.30;99.90;;;;;;6203305;23;20406;-89
2021/10/20 08:40:46;;;;;;;5.20;4.47;;;14.70;99.90;;;;;;6203050;23;20387;-89
2021/10/20 08:43:13;;;;;;;7.47;4.20;;;14.90;99.90;;;;;;6205241;23;20446;-88
2021/10/20 08:45:39;;;;;;;4.13;3.73;;;15.10;99.90;;;;;;6202393;23;21228;-87
2021/10/20 08:48:05;;;;;;;4.03;3.73;;;15.30;99.90;;;;;;6201070;23;20415;-87
2021/10/20 08:50:36;;;;;;;5.70;4.50;;;15.40;99.90;;;;;;6202308;23;20682;-88
2021/10/20 08:53:03;;;;;;;6.63;4.30;;;15.40;99.90;;;;;;6177369;23;20418;-89
2021/10/20 08:55:29;;;;;;;5.53;4.70;;;15.30;99.90;;;;;;6216262;23;20399;-90
2021/10/20 08:57:56;;;;;;;4.70;4.33;;;15.30;99.90;;;;;;6208075;23;20493;-89
2021/10/20 09:00:23;;;;;;;4.27;3.97;;;15.40;99.90;;;;;;6203971;23;20390;-88
2021/10/20 09:02:49;;;;;;;5.00;4.60;;;15.80;99.90;;;;;;6204053;23;20441;-89
2021/10/20 09:05:24;;;;;;;8.50;5.23;;;16.10;99.90;;;;;;6203997;23;20460;-90
2021/10/20 09:07:51;;;;;;;5.80;5.30;;;16.10;99.90;;;;;;6201478;23;20394;-89
2021/10/20 09:10:32;;;;;;;5.13;4.40;;;16.30;99.90;;;;;;6204240;23;20402;-93
2021/10/20 09:13:00;;;;;;;5.47;4.70;;;16.70;99.90;;;;;;6201096;23;20429;-93
2021/10/20 09:15:29;;;;;;;4.70;4.30;;;16.90;99.00;;;;;;6201592;23;20885;-91
2021/10/20 09:18:04;;;;;;;4.90;4.50;;;17.10;99.10;;;;;;6199775;23;20508;-92
2021/10/20 09:20:49;;;;;;;5.00;3.60;;;17.30;98.80;;;;;;6201556;23;20765;-90
2021/10/20 09:23:20;;;;;;;4.70;4.30;;;17.50;98.60;;;;;;6180981;23;20458;-93
2021/10/20 09:25:57;;;;;;;4.90;4.47;;;17.60;98.20;;;;;;6202835;23;20433;-91
2021/10/20 09:28:26;;;;;;;4.57;4.13;;;17.60;98.50;;;;;;6178186;23;20421;-92
2021/10/20 09:30:53;;;;;;;4.63;4.20;;;17.70;98.60;;;;;;6204757;23;20457;-91
2021/10/20 09:33:19;;;;;;;5.93;4.30;;;17.80;98.00;;;;;;6202516;23;20824;-91
2021/10/20 09:35:44;;;;;;;6.93;4.60;;;17.70;98.10;;;;;;6204478;23;20406;-91
2021/10/20 09:38:11;;;;;;;5.60;5.00;;;17.40;98.30;;;;;;6202502;23;20986;-91
2021/10/20 09:40:50;;;;;;;4.87;4.47;;;17.00;98.60;;;;;;6203673;23;20164;-90
2021/10/20 09:43:18;;;;;;;5.30;4.80;;;17.00;99.30;;;;;;6202391;23;20505;-91
2021/10/20 09:45:48;;;;;;;4.73;4.17;;;17.40;98.80;;;;;;6202561;23;20433;-90
2021/10/20 09:48:22;;;;;;;4.30;3.90;;;17.90;98.20;;;;;;6203458;23;20409;-91
2021/10/20 09:51:04;;;;;;;4.67;4.27;;;18.40;98.60;;;;;;6202443;23;20403;-89
2021/10/20 09:53:51;;;;;;;3.87;3.57;;;18.60;96.90;;;;;;6201473;23;20457;-89
2021/10/20 09:56:25;;;;;;;4.87;4.07;;;18.90;96.40;;;;;;6204141;23;20395;-90
2021/10/20 09:58:52;;;;;;;9.60;4.80;;;19.00;96.00;;;;;;6197709;23;20486;-89
2021/10/20 10:01:24;;;;;;;6.40;3.97;;;18.90;96.20;;;;;;6200426;23;20403;-89
2021/10/20 10:03:50;;;;;;;6.20;5.60;;;19.20;96.00;;;;;;6197821;23;20461;-89
2021/10/20 10:06:17;;;;;;;4.60;4.20;;;19.00;96.00;;;;;;6174301;23;20402;-91
2021/10/20 10:08:44;;;;;;;5.50;3.83;;;19.10;96.20;;;;;;6175316;23;20788;-90
2021/10/20 10:12:15;;;;;;;;;;;;;;;;;;;;;
2021/10/20 10:15:20;;;;;;;4.83;3.83;;;19.20;96.20;;;;;;6138509;23;20384;-92
2021/10/20 10:18:25;;;;;;;;;;;;;;;;;;;;;
2021/10/20 10:20:51;;;;;;;4.30;3.53;;;19.30;95.50;;;;;;6200169;23;20545;-90
2021/10/20 10:23:23;;;;;;;3.50;3.20;;;19.40;95.80;;;;;;6178539;23;20469;-90
2021/10/20 10:26:05;;;;;;;4.17;3.87;;;19.60;95.30;;;;;;6183704;23;20163;-89
2021/10/20 10:29:14;;;;;;;4.43;3.53;;;19.70;95.80;;;;;;6204860;23;20394;-90
2021/10/20 10:31:42;;;;;;;4.80;3.60;;;19.80;95.60;;;;;;6176525;23;20431;-90
2021/10/20 10:34:25;;;;;;;4.47;3.70;;;20.50;94.70;;;;;;6173784;23;20390;-90
2021/10/20 10:36:57;;;;;;;3.73;3.37;;;20.80;94.10;;;;;;6151771;23;20399;-89
2021/10/20 10:39:23;;;;;;;4.30;3.90;;;21.10;94.00;;;;;;6175671;23;20402;-88
2021/10/20 10:41:49;;;;;;;4.07;3.67;;;20.60;93.50;;;;;;6176519;23;20442;-90
2021/10/20 10:44:43;;;;;;;3.40;3.20;;;20.50;94.00;;;;;;6175754;23;20164;-90
2021/10/20 10:47:27;;;;;;;4.13;3.73;;;20.40;94.10;;;;;;6177265;23;20405;-93
2021/10/20 10:49:55;;;;;;;3.93;3.53;;;20.10;94.60;;;;;;6175781;23;20473;-90
2021/10/20 10:52:41;;;;;;;4.57;3.20;;;19.90;95.40;;;;;;6176951;23;20456;-91
2021/10/20 10:55:19;;;;;;;3.57;3.27;;;20.50;95.90;;;;;;6203035;23;20670;-91
2021/10/20 10:57:54;;;;;;;3.10;2.90;;;20.90;95.20;;;;;;6177278;23;20397;-90
2021/10/20 11:00:20;;;;;;;3.10;2.90;;;21.10;92.70;;;;;;6176234;23;20406;-90
2021/10/20 11:02:57;;;;;;;3.37;3.07;;;21.90;91.90;;;;;;6176125;23;20508;-90
2021/10/20 11:05:30;;;;;;;3.50;3.20;;;21.70;91.70;;;;;;6194496;23;20202;-90
2021/10/20 11:08:09;;;;;;;3.57;3.23;;;21.20;91.60;;;;;;6203127;23;20402;-91
2021/10/20 11:10:38;;;;;;;3.63;3.33;;;21.10;92.50;;;;;;6201359;23;20399;-91
2021/10/20 11:13:04;;;;;;;3.67;3.00;;;21.00;92.10;;;;;;6201625;23;20472;-90
2021/10/20 11:15:32;;;;;;;3.53;3.03;;;20.80;92.10;;;;;;6201684;23;20456;-90
2021/10/20 11:17:59;;;;;;;3.83;3.57;;;20.60;92.40;;;;;;6202191;23;20458;-89
2021/10/20 11:20:35;;;;;;;3.50;2.50;;;20.40;92.50;;;;;;6177660;23;20472;-93
2021/10/20 11:23:04;;;;;;;3.20;2.90;;;20.40;92.60;;;;;;6202981;23;20446;-90
2021/10/20 11:25:36;;;;;;;3.53;3.23;;;20.20;92.60;;;;;;6200922;23;20814;-91
2021/10/20 11:28:05;;;;;;;3.53;3.10;;;20.10;93.00;;;;;;6174696;23;20477;-91
2021/10/20 11:33:42;;;;;;;3.50;2.67;;;20.10;93.60;;;;;;6203778;23;20770;-91
2021/10/20 11:36:19;;;;;;;2.93;2.73;;;20.60;93.40;;;;;;6199969;23;20402;-90
2021/10/20 11:38:46;;;;;;;3.37;2.93;;;21.30;92.50;;;;;;6197774;23;20418;-90
2021/10/20 11:41:18;;;;;;;4.30;3.30;;;21.70;92.00;;;;;;6196689;23;20402;-90
2021/10/20 11:43:46;;;;;;;3.20;3.00;;;21.80;91.60;;;;;;6199649;23;20481;-89
2021/10/20 11:46:16;;;;;;;2.90;2.70;;;21.70;91.80;;;;;;6200407;23;20398;-90
2021/10/20 11:48:44;;;;;;;3.60;2.67;;;21.90;91.80;;;;;;6203328;23;20924;-90
2021/10/20 11:51:11;;;;;;;3.23;2.90;;;21.90;91.30;;;;;;6177244;23;20402;-91
2021/10/20 11:53:37;;;;;;;2.87;2.67;;;22.10;91.10;;;;;;6202522;23;20485;-91
2021/10/20 11:56:04;;;;;;;3.07;2.87;;;22.30;90.60;;;;;;6212598;23;20732;-90
2021/10/20 11:58:31;;;;;;;2.93;2.73;;;22.30;90.40;;;;;;6201475;23;20429;-90
2021/10/20 12:01:11;;;;;;;4.50;2.97;;;22.50;90.70;;;;;;6201970;23;20765;-91
2021/10/20 12:03:39;;;;;;;3.00;2.73;;;23.10;89.60;;;;;;6178839;23;20472;-89
2021/10/20 12:06:08;;;;;;;4.40;3.07;;;23.50;90.00;;;;;;6176170;23;20395;-89
2021/10/20 12:08:35;;;;;;;3.03;2.67;;;23.70;87.30;;;;;;6176593;23;20739;-89
2021/10/20 12:11:02;;;;;;;3.10;2.80;;;23.60;88.30;;;;;;6175977;23;20426;-88
2021/10/20 12:13:27;;;;;;;3.30;3.00;;;23.90;88.40;;;;;;6200721;23;20717;-87
2021/10/20 12:15:55;;;;;;;2.80;2.43;;;23.90;88.40;;;;;;6176485;23;20391;-88
2021/10/20 12:18:24;;;;;;;4.53;2.63;;;23.60;89.30;;;;;;6178038;23;20483;-91
2021/10/20 12:20:55;;;;;;;2.50;2.30;;;23.30;88.60;;;;;;6176197;23;20469;-90
2021/10/20 12:23:21;;;;;;;2.40;2.20;;;22.90;89.20;;;;;;6178310;23;20447;-88
2021/10/20 12:25:47;;;;;;;2.37;2.17;;;23.30;89.10;;;;;;6176791;23;20424;-91
2021/10/20 12:28:33;;;;;;;6.73;2.40;;;23.90;87.70;;;;;;6153276;23;21016;-91
2021/10/20 12:31:08;;;;;;;2.20;2.00;;;23.10;87.90;;;;;;6176580;23;20481;-91
2021/10/20 12:33:52;;;;;;;4.83;2.30;;;23.70;86.90;;;;;;6177777;23;20915;-92
2021/10/20 12:36:25;;;;;;;2.40;2.20;;;23.90;85.90;;;;;;6178105;23;20425;-93
2021/10/20 12:38:51;;;;;;;2.30;2.10;;;24.20;84.80;;;;;;6175929;23;20481;-90
2021/10/20 12:41:26;;;;;;;2.83;2.40;;;25.20;83.30;;;;;;6177157;23;20893;-91
2021/10/20 12:43:55;;;;;;;2.53;2.33;;;25.40;81.40;;;;;;6177118;23;20733;-92
2021/10/20 12:46:22;;;;;;;2.80;2.23;;;25.50;82.40;;;;;;6176552;23;20407;-92
2021/10/20 12:48:50;;;;;;;2.60;2.40;;;24.60;81.80;;;;;;6176558;23;20406;-91
2021/10/20 12:51:19;;;;;;;3.80;2.60;;;23.70;86.10;;;;;;6175835;23;20403;-91
2021/10/20 12:53:57;;;;;;;4.10;2.50;;;22.80;86.90;;;;;;6177002;23;20410;-92
2021/10/20 12:56:30;;;;;;;3.13;2.13;;;22.30;89.70;;;;;;6176214;23;20407;-91
2021/10/20 12:59:29;;;;;;;2.63;2.43;;;22.20;90.00;;;;;;6151969;23;20402;-91
2021/10/20 13:01:56;;;;;;;2.67;2.47;;;21.90;90.10;;;;;;6174662;23;20961;-90
2021/10/20 13:04:22;;;;;;;2.73;2.50;;;21.60;90.60;;;;;;6177672;23;20414;-91
2021/10/20 13:07:12;;;;;;;3.00;2.63;;;21.30;91.10;;;;;;6198450;23;20429;-91
2021/10/20 13:09:56;;;;;;;4.13;2.80;;;21.30;91.70;;;;;;6202238;23;20164;-91
2021/10/20 13:12:22;;;;;;;2.80;2.60;;;21.10;92.10;;;;;;6202757;23;20398;-91
2021/10/20 13:14:48;;;;;;;7.10;3.07;;;21.00;91.90;;;;;;6198250;23;20160;-90
2021/10/20 13:17:13;;;;;;;2.60;2.40;;;20.90;92.10;;;;;;6199148;23;20614;-90